The Bluffs, Louisiana
Current Conditions -  °F | °C
As of 2:35 AM on Friday 19 Dec 2014 (Local Time) from KHZR Reporting Station
Haze Haze  
Wind Chill: 54°   Ceiling: 600
Heat Index: 54°   Visibility: 4mi
Dew Point: 53°   Wind: 8mph
Humidity: 97%   Direction: 60°ENE
Pressure: 30.07"   Gusts: NA
Location:  30.8345°N, 91.2519°W
Report Text: KHZR 190835Z AUTO 06007KT 4SM BR OVC006 12/12 A3007 RMK AO2 T01200115
Loading
Personal Weather Stations






























Interactive Weather Map New forecast layout! Learn more

10-Day Weather Forecast

Advertisements
Track Severe Weather on mobile